This is the latest recevied weather packets stored in our database for station/object DF7ER-12. If no packets are shown the sender has not sent any weather packets the latest 10 day(s).
| Time | Temp. | Humidity | Pressure | Rain* | Wind** | Luminosity | Snow |
|---|---|---|---|---|---|---|---|
| 1777813299 | 28.33° C | 45% | 999.7 hPa | - | - | - | - |
| 1777812999 | 27.78° C | 46% | 999.7 hPa | - | - | - | - |
| 1777812699 | 27.22° C | 46% | 999.7 hPa | - | - | - | - |
| 1777812399 | 27.78° C | 46% | 999.9 hPa | - | - | - | - |
| 1777812098 | 27.78° C | 45% | 999.9 hPa | - | - | - | - |
| 1777811798 | 26.67° C | 46% | 1000 hPa | - | - | - | - |
| 1777811498 | 28.33° C | 44% | 1000 hPa | - | - | - | - |
| 1777811198 | 27.78° C | 46% | 1000.2 hPa | - | - | - | - |
| 1777810898 | 27.78° C | 47% | 1000.1 hPa | - | - | - | - |
| 1777810598 | 27.22° C | 47% | 1000.2 hPa | - | - | - | - |
| 1777810298 | 27.78° C | 48% | 1000.3 hPa | - | - | - | - |
| 1777809998 | 26.67° C | 49% | 1000.4 hPa | - | - | - | - |
| 1777809699 | 27.22° C | 50% | 1000.4 hPa | - | - | - | - |
| 1777809398 | 27.22° C | 49% | 1000.5 hPa | - | - | - | - |
| 1777809098 | 27.22° C | 49% | 1000.5 hPa | - | - | - | - |
| 1777808798 | 28.89° C | 47% | 1000.5 hPa | - | - | - | - |
| 1777808498 | 27.22° C | 50% | 1000.5 hPa | - | - | - | - |
| 1777808198 | 28.89° C | 49% | 1000.6 hPa | - | - | - | - |
| 1777807899 | 27.78° C | 51% | 1000.6 hPa | - | - | - | - |
| 1777807598 | 27.22° C | 51% | 1000.7 hPa | - | - | - | - |
| 1777807298 | 26.67° C | 52% | 1000.7 hPa | - | - | - | - |
| 1777806999 | 27.78° C | 50% | 1000.8 hPa | - | - | - | - |
| 1777806698 | 27.22° C | 50% | 1000.8 hPa | - | - | - | - |
| 1777806399 | 28.33° C | 49% | 1000.8 hPa | - | - | - | - |
| 1777806099 | 28.33° C | 50% | 1000.8 hPa | - | - | - | - |
* Rain since midnight (hover to see other rain measurements)
** Current wind speed in m/s (hover to see current wind gust speed)